createdAt,value
2018-06-23T00:00:10.000Z,101394
2018-06-23T00:01:10.000Z,101388
2018-06-23T00:03:10.000Z,101390
2018-06-23T00:05:10.000Z,101391
2018-06-23T00:07:10.000Z,101396
2018-06-23T00:08:10.000Z,101398
2018-06-23T00:10:10.000Z,101395
2018-06-23T00:11:10.000Z,101391
2018-06-23T00:13:10.000Z,101392
2018-06-23T00:15:10.000Z,101390
2018-06-23T00:16:10.000Z,101391
2018-06-23T00:18:10.000Z,101388
2018-06-23T00:20:10.000Z,101392
2018-06-23T00:21:10.000Z,101391
2018-06-23T00:22:55.000Z,101393
2018-06-23T00:24:10.000Z,101394
2018-06-23T00:26:10.000Z,101391
2018-06-23T00:27:10.000Z,101393
2018-06-23T00:29:10.000Z,101390
2018-06-23T00:30:55.000Z,101386
2018-06-23T00:32:10.000Z,101389
2018-06-23T00:34:10.000Z,101390
2018-06-23T00:36:10.000Z,101390
2018-06-23T00:37:10.000Z,101389
2018-06-23T00:39:10.000Z,101384
2018-06-23T00:40:40.000Z,101389
2018-06-23T00:42:10.000Z,101387
2018-06-23T00:43:55.000Z,101389
2018-06-23T00:45:10.000Z,101386
2018-06-23T00:47:10.000Z,101389
2018-06-23T00:49:10.000Z,101388
2018-06-23T00:51:10.000Z,101382
2018-06-23T00:52:10.000Z,101384
2018-06-23T00:53:55.000Z,101388
2018-06-23T00:55:10.000Z,101393
2018-06-23T00:56:10.000Z,101390
2018-06-23T00:57:55.000Z,101385
2018-06-23T00:59:10.000Z,101387
2018-06-23T01:01:10.000Z,101391
2018-06-23T01:02:10.000Z,101391
2018-06-23T01:04:10.000Z,101379
2018-06-23T01:06:10.000Z,101382
2018-06-23T01:08:10.000Z,101387
2018-06-23T01:10:10.000Z,101388
2018-06-23T01:12:10.000Z,101379
2018-06-23T01:13:55.000Z,101379
2018-06-23T01:15:10.000Z,101381
2018-06-23T01:16:10.000Z,101377
2018-06-23T01:17:55.000Z,101384
2018-06-23T01:19:10.000Z,101379
2018-06-23T01:21:10.000Z,101374
2018-06-23T01:23:10.000Z,101370
2018-06-23T01:24:10.000Z,101372
2018-06-23T01:25:55.000Z,101381
2018-06-23T01:27:10.000Z,101383
2018-06-23T01:28:10.000Z,101388
2018-06-23T01:29:55.000Z,101387
2018-06-23T01:31:10.000Z,101384
2018-06-23T01:33:10.000Z,101388
2018-06-23T01:34:10.000Z,101385
2018-06-23T01:36:10.000Z,101383
2018-06-23T01:38:10.000Z,101386
2018-06-23T01:39:55.000Z,101388
2018-06-23T01:41:10.000Z,101388
2018-06-23T01:42:10.000Z,101388
2018-06-23T01:43:10.000Z,101388
2018-06-23T01:45:10.000Z,101390
2018-06-23T01:46:10.000Z,101387
2018-06-23T01:47:55.000Z,101389
2018-06-23T01:49:10.000Z,101386
2018-06-23T01:51:10.000Z,101384
2018-06-23T01:53:10.000Z,101382
2018-06-23T01:55:10.000Z,101387
2018-06-23T01:56:10.000Z,101383
2018-06-23T01:58:10.000Z,101378
2018-06-23T01:59:10.000Z,101379
2018-06-23T02:01:10.000Z,101382
2018-06-23T02:02:10.000Z,101372
2018-06-23T02:03:55.000Z,101379
2018-06-23T02:05:10.000Z,101380
2018-06-23T02:06:10.000Z,101380
2018-06-23T02:07:10.000Z,101380
2018-06-23T02:09:10.000Z,101378
2018-06-23T02:10:10.000Z,101379
2018-06-23T02:12:10.000Z,101377
2018-06-23T02:14:10.000Z,101382
2018-06-23T02:15:10.000Z,101379
2018-06-23T02:17:10.000Z,101370
2018-06-23T02:18:10.000Z,101369
2018-06-23T02:20:10.000Z,101363
2018-06-23T02:22:10.000Z,101366
2018-06-23T02:24:10.000Z,101363
2018-06-23T02:26:10.000Z,101368
2018-06-23T02:27:39.000Z,101376
2018-06-23T02:29:10.000Z,101381
2018-06-23T02:31:10.000Z,101377
2018-06-23T02:33:10.000Z,101378
2018-06-23T02:35:10.000Z,101379
2018-06-23T02:37:10.000Z,101372
2018-06-23T02:38:10.000Z,101372
2018-06-23T02:40:10.000Z,101368
2018-06-23T02:41:10.000Z,101371
2018-06-23T02:42:55.000Z,101371
2018-06-23T02:44:10.000Z,101373
2018-06-23T02:45:10.000Z,101378
2018-06-23T02:46:55.000Z,101370
2018-06-23T02:48:10.000Z,101369
2018-06-23T02:49:10.000Z,101369
2018-06-23T02:50:55.000Z,101374
2018-06-23T02:53:10.000Z,101374
2018-06-23T02:55:10.000Z,101376
2018-06-23T02:57:10.000Z,101372
2018-06-23T02:58:10.000Z,101380
2018-06-23T03:00:10.000Z,101382
2018-06-23T03:02:10.000Z,101389
2018-06-23T03:04:10.000Z,101380
2018-06-23T03:05:10.000Z,101385
2018-06-23T03:07:10.000Z,101389
2018-06-23T03:09:10.000Z,101387
2018-06-23T03:10:10.000Z,101384
2018-06-23T03:11:10.000Z,101386
2018-06-23T03:12:10.000Z,101386
2018-06-23T03:14:10.000Z,101385
2018-06-23T03:16:10.000Z,101381
2018-06-23T03:18:10.000Z,101375
2018-06-23T03:20:10.000Z,101391
2018-06-23T03:21:10.000Z,101384
2018-06-23T03:23:10.000Z,101389
2018-06-23T03:24:10.000Z,101389
2018-06-23T03:25:54.000Z,101382
2018-06-23T03:27:09.000Z,101383
2018-06-23T03:29:09.000Z,101384
2018-06-23T03:31:09.000Z,101387
2018-06-23T03:32:09.000Z,101379
2018-06-23T03:34:09.000Z,101385
2018-06-23T03:36:09.000Z,101383
2018-06-23T03:38:09.000Z,101385
2018-06-23T03:39:09.000Z,101390
2018-06-23T03:41:09.000Z,101381
2018-06-23T03:43:09.000Z,101383
2018-06-23T03:44:09.000Z,101383
2018-06-23T03:45:09.000Z,101381
2018-06-23T03:46:54.000Z,101377
2018-06-23T03:48:09.000Z,101384
2018-06-23T03:50:09.000Z,101385
2018-06-23T03:52:09.000Z,101379
2018-06-23T03:53:09.000Z,101387
2018-06-23T03:54:09.000Z,101385
2018-06-23T03:56:09.000Z,101376
2018-06-23T03:57:09.000Z,101383
2018-06-23T03:58:54.000Z,101381
2018-06-23T04:00:09.000Z,101383
2018-06-23T04:01:09.000Z,101385
2018-06-23T04:03:09.000Z,101383
2018-06-23T04:04:09.000Z,101383
2018-06-23T04:06:09.000Z,101379
2018-06-23T04:08:09.000Z,101383
2018-06-23T04:10:09.000Z,101380
2018-06-23T04:12:09.000Z,101384
2018-06-23T04:14:09.000Z,101384
2018-06-23T04:16:09.000Z,101381
2018-06-23T04:17:09.000Z,101383
2018-06-23T04:19:09.000Z,101379
2018-06-23T04:21:09.000Z,101385
2018-06-23T04:23:09.000Z,101384
2018-06-23T04:24:09.000Z,101392
2018-06-23T04:26:09.000Z,101390
2018-06-23T04:28:09.000Z,101392
2018-06-23T04:30:09.000Z,101392
2018-06-23T04:32:09.000Z,101391
2018-06-23T04:33:09.000Z,101385
2018-06-23T04:34:54.000Z,101393
2018-06-23T04:36:09.000Z,101387
2018-06-23T04:38:09.000Z,101389
2018-06-23T04:39:09.000Z,101391
2018-06-23T04:41:09.000Z,101388
2018-06-23T04:42:09.000Z,101390
2018-06-23T04:44:09.000Z,101384
2018-06-23T04:46:09.000Z,101393
2018-06-23T04:48:09.000Z,101394
2018-06-23T04:50:09.000Z,101388
2018-06-23T04:52:09.000Z,101387
2018-06-23T04:56:10.000Z,101382
2018-06-23T04:57:55.000Z,101385
2018-06-23T04:59:55.000Z,101387
2018-06-23T05:01:55.000Z,101381
2018-06-23T05:03:55.000Z,101384
2018-06-23T05:04:55.000Z,101374
2018-06-23T05:05:55.000Z,101375
2018-06-23T05:07:25.000Z,101370
2018-06-23T05:08:55.000Z,101377
2018-06-23T05:10:40.000Z,101372
2018-06-23T05:11:55.000Z,101373
2018-06-23T05:12:55.000Z,101372
2018-06-23T05:14:55.000Z,101373
2018-06-23T05:16:55.000Z,101364
2018-06-23T05:18:55.000Z,101360
2018-06-23T05:20:55.000Z,101366
2018-06-23T05:22:55.000Z,101366
2018-06-23T05:23:55.000Z,101369
2018-06-23T05:24:55.000Z,101367
2018-06-23T05:26:55.000Z,101364
2018-06-23T05:28:55.000Z,101371
2018-06-23T05:30:55.000Z,101365
2018-06-23T05:32:56.000Z,101367
2018-06-23T05:34:56.000Z,101365
2018-06-23T05:35:56.000Z,101366
2018-06-23T05:37:25.000Z,101366
2018-06-23T05:38:56.000Z,101373
2018-06-23T05:40:41.000Z,101378
2018-06-23T05:41:56.000Z,101370
2018-06-23T05:43:41.000Z,101374
2018-06-23T05:44:56.000Z,101373
2018-06-23T05:46:56.000Z,101373
2018-06-23T05:48:56.000Z,101369
2018-06-23T05:50:25.000Z,101364
2018-06-23T05:51:56.000Z,101361
2018-06-23T05:52:56.000Z,101358
2018-06-23T05:54:56.000Z,101356
2018-06-23T05:56:56.000Z,101364
2018-06-23T05:57:56.000Z,101365
2018-06-23T05:59:41.000Z,101361
2018-06-23T06:00:56.000Z,101366
2018-06-23T06:02:56.000Z,101368
2018-06-23T06:04:56.000Z,101372
2018-06-23T06:06:41.000Z,101378
2018-06-23T06:07:56.000Z,101377
2018-06-23T06:08:56.000Z,101375
2018-06-23T06:10:56.000Z,101387
2018-06-23T06:12:56.000Z,101385
2018-06-23T06:14:41.000Z,101392
2018-06-23T06:15:56.000Z,101396
2018-06-23T06:17:56.000Z,101393
2018-06-23T06:19:56.000Z,101394
2018-06-23T06:21:41.000Z,101391
2018-06-23T06:22:56.000Z,101392
2018-06-23T06:24:56.000Z,101396
2018-06-23T06:26:41.000Z,101400
2018-06-23T06:27:56.000Z,101398
2018-06-23T06:29:56.000Z,101392
2018-06-23T06:31:56.000Z,101392
2018-06-23T06:33:56.000Z,101394
2018-06-23T06:35:56.000Z,101397
2018-06-23T06:37:56.000Z,101399
2018-06-23T06:39:25.000Z,101397
2018-06-23T06:40:56.000Z,101403
2018-06-23T06:42:41.000Z,101397
2018-06-23T06:43:56.000Z,101398
2018-06-23T06:45:25.000Z,101396
2018-06-23T06:46:56.000Z,101395
2018-06-23T06:47:56.000Z,101390
2018-06-23T06:48:56.000Z,101395
2018-06-23T06:50:41.000Z,101392
2018-06-23T06:51:56.000Z,101395
2018-06-23T06:52:56.000Z,101384
2018-06-23T06:53:56.000Z,101383
2018-06-23T06:55:40.000Z,101385
2018-06-23T06:56:56.000Z,101387
2018-06-23T06:58:56.000Z,101383
2018-06-23T06:59:56.000Z,101385
2018-06-23T07:00:56.000Z,101383
2018-06-23T07:02:56.000Z,101390
2018-06-23T07:04:41.000Z,101387
2018-06-23T07:05:56.000Z,101389
2018-06-23T07:07:56.000Z,101388
2018-06-23T07:09:56.000Z,101378
2018-06-23T07:10:56.000Z,101375
2018-06-23T07:11:56.000Z,101381
2018-06-23T07:13:56.000Z,101388
2018-06-23T07:14:56.000Z,101383
2018-06-23T07:15:56.000Z,101383
2018-06-23T07:17:56.000Z,101385
2018-06-23T07:19:56.000Z,101383
2018-06-23T07:21:56.000Z,101388
2018-06-23T07:23:56.000Z,101386
2018-06-23T07:25:56.000Z,101392
2018-06-23T07:26:56.000Z,101381
2018-06-23T07:28:41.000Z,101385
2018-06-23T07:29:56.000Z,101382
2018-06-23T07:31:41.000Z,101389
2018-06-23T07:32:41.000Z,101386
2018-06-23T07:33:56.000Z,101384
2018-06-23T07:35:56.000Z,101382
2018-06-23T07:37:56.000Z,101380
2018-06-23T07:38:56.000Z,101378
2018-06-23T07:39:56.000Z,101385
2018-06-23T07:40:56.000Z,101383
2018-06-23T07:41:56.000Z,101379
2018-06-23T07:43:56.000Z,101369
2018-06-23T07:45:56.000Z,101376
2018-06-23T07:47:56.000Z,101384
2018-06-23T07:49:41.000Z,101380
2018-06-23T07:50:41.000Z,101376
2018-06-23T07:51:56.000Z,101377
2018-06-23T07:52:56.000Z,101375
2018-06-23T07:53:56.000Z,101369
2018-06-23T07:55:56.000Z,101372
2018-06-23T07:57:56.000Z,101371
2018-06-23T07:58:56.000Z,101368
2018-06-23T08:00:41.000Z,101368
2018-06-23T08:01:56.000Z,101369
2018-06-23T08:02:56.000Z,101368
2018-06-23T08:03:56.000Z,101367
2018-06-23T08:05:56.000Z,101370
2018-06-23T08:07:56.000Z,101378
2018-06-23T08:08:56.000Z,101381
2018-06-23T08:10:41.000Z,101379
2018-06-23T08:11:56.000Z,101382
2018-06-23T08:13:56.000Z,101377
2018-06-23T08:14:56.000Z,101378
2018-06-23T08:16:56.000Z,101376
2018-06-23T08:17:56.000Z,101362
2018-06-23T08:19:56.000Z,101357
2018-06-23T08:20:56.000Z,101363
2018-06-23T08:22:56.000Z,101364
2018-06-23T08:24:56.000Z,101356
2018-06-23T08:25:56.000Z,101358
2018-06-23T08:27:56.000Z,101359
2018-06-23T08:29:56.000Z,101362
2018-06-23T08:31:56.000Z,101356
2018-06-23T08:32:56.000Z,101357
2018-06-23T08:33:56.000Z,101357
2018-06-23T08:35:41.000Z,101355
2018-06-23T08:36:56.000Z,101354
2018-06-23T08:38:56.000Z,101356
2018-06-23T08:40:56.000Z,101352
2018-06-23T08:42:56.000Z,101358
2018-06-23T08:44:56.000Z,101361
2018-06-23T08:46:56.000Z,101365
2018-06-23T08:48:56.000Z,101363
2018-06-23T08:49:56.000Z,101364
2018-06-23T08:50:56.000Z,101358
2018-06-23T08:52:56.000Z,101361
2018-06-23T08:54:56.000Z,101359
2018-06-23T08:55:56.000Z,101361
2018-06-23T08:57:41.000Z,101363
2018-06-23T08:58:56.000Z,101355
2018-06-23T08:59:56.000Z,101357
2018-06-23T09:01:56.000Z,101347
2018-06-23T09:03:56.000Z,101345
2018-06-23T09:04:56.000Z,101350
2018-06-23T09:06:56.000Z,101336
2018-06-23T09:08:56.000Z,101351
2018-06-23T09:09:56.000Z,101343
2018-06-23T09:11:56.000Z,101344
2018-06-23T09:13:41.000Z,101343
2018-06-23T09:14:41.000Z,101342
2018-06-23T09:15:56.000Z,101344
2018-06-23T09:17:56.000Z,101349
2018-06-23T09:19:56.000Z,101341
2018-06-23T09:21:56.000Z,101342
2018-06-23T09:22:56.000Z,101332
2018-06-23T09:24:56.000Z,101334
2018-06-23T09:26:41.000Z,101331
2018-06-23T09:27:41.000Z,101322
2018-06-23T09:28:56.000Z,101328
2018-06-23T09:30:41.000Z,101330
2018-06-23T09:31:56.000Z,101330
2018-06-23T09:32:56.000Z,101327
2018-06-23T09:34:41.000Z,101332
2018-06-23T09:35:56.000Z,101326
2018-06-23T09:36:56.000Z,101330
2018-06-23T09:37:56.000Z,101325
2018-06-23T09:39:41.000Z,101331
2018-06-23T09:40:56.000Z,101332
2018-06-23T09:42:41.000Z,101336
2018-06-23T09:43:56.000Z,101329
2018-06-23T09:44:56.000Z,101326
2018-06-23T09:45:56.000Z,101323
2018-06-23T09:46:56.000Z,101325
2018-06-23T09:48:55.000Z,101323
2018-06-23T09:50:55.000Z,101328
2018-06-23T09:52:55.000Z,101325
2018-06-23T09:53:55.000Z,101326
2018-06-23T09:54:55.000Z,101316
2018-06-23T09:56:55.000Z,101316
2018-06-23T09:57:55.000Z,101328
2018-06-23T09:59:55.000Z,101321
2018-06-23T10:01:55.000Z,101321
2018-06-23T10:02:55.000Z,101328
2018-06-23T10:03:55.000Z,101324
2018-06-23T10:05:55.000Z,101326
2018-06-23T10:06:55.000Z,101324
2018-06-23T10:08:40.000Z,101325
2018-06-23T10:09:55.000Z,101325
2018-06-23T10:11:55.000Z,101327
2018-06-23T10:12:55.000Z,101325
2018-06-23T10:14:55.000Z,101322
2018-06-23T10:15:55.000Z,101324
2018-06-23T10:17:55.000Z,101337
2018-06-23T10:19:40.000Z,101331
2018-06-23T10:20:55.000Z,101336
2018-06-23T10:21:55.000Z,101328
2018-06-23T10:23:55.000Z,101339
2018-06-23T10:25:55.000Z,101336
2018-06-23T10:26:55.000Z,101333
2018-06-23T10:27:55.000Z,101337
2018-06-23T10:29:40.000Z,101334
2018-06-23T10:30:55.000Z,101338
2018-06-23T10:32:40.000Z,101333
2018-06-23T10:33:55.000Z,101334
2018-06-23T10:35:55.000Z,101329
2018-06-23T10:36:55.000Z,101336
2018-06-23T10:38:55.000Z,101331
2018-06-23T10:40:55.000Z,101338
2018-06-23T10:41:55.000Z,101334
2018-06-23T10:42:55.000Z,101324
2018-06-23T10:44:55.000Z,101330
2018-06-23T10:46:55.000Z,101329
2018-06-23T10:48:55.000Z,101326
2018-06-23T10:50:56.000Z,101328
2018-06-23T10:52:56.000Z,101318
2018-06-23T10:54:56.000Z,101325
2018-06-23T10:55:56.000Z,101320
2018-06-23T10:57:56.000Z,101325
2018-06-23T10:58:56.000Z,101331
2018-06-23T11:00:56.000Z,101329
2018-06-23T11:02:56.000Z,101327
2018-06-23T11:04:56.000Z,101328
2018-06-23T11:05:56.000Z,101322
2018-06-23T11:06:56.000Z,101326
2018-06-23T11:07:56.000Z,101326
2018-06-23T11:09:56.000Z,101317
2018-06-23T11:11:25.000Z,101323
2018-06-23T11:12:56.000Z,101318
2018-06-23T11:13:56.000Z,101318
2018-06-23T11:15:56.000Z,101329
2018-06-23T11:17:56.000Z,101330
2018-06-23T11:19:56.000Z,101335
2018-06-23T11:20:56.000Z,101340
2018-06-23T11:22:56.000Z,101339
2018-06-23T11:23:56.000Z,101333
2018-06-23T11:25:56.000Z,101342
2018-06-23T11:26:56.000Z,101346
2018-06-23T11:28:56.000Z,101340
2018-06-23T11:30:56.000Z,101343
2018-06-23T11:32:40.000Z,101340
2018-06-23T11:33:56.000Z,101343
2018-06-23T11:35:56.000Z,101335
2018-06-23T11:37:56.000Z,101343
2018-06-23T11:38:56.000Z,101338
2018-06-23T11:40:25.000Z,101333
2018-06-23T11:41:56.000Z,101332
2018-06-23T11:43:56.000Z,101346
2018-06-23T11:44:56.000Z,101344
2018-06-23T11:46:56.000Z,101340
2018-06-23T11:47:56.000Z,101339
2018-06-23T11:49:56.000Z,101336
2018-06-23T11:51:56.000Z,101337
2018-06-23T11:53:56.000Z,101335
2018-06-23T11:55:40.000Z,101341
2018-06-23T11:56:55.000Z,101339
2018-06-23T11:58:40.000Z,101340
2018-06-23T11:59:55.000Z,101333
2018-06-23T12:00:55.000Z,101338
2018-06-23T12:02:55.000Z,101325
2018-06-23T12:04:55.000Z,101326
2018-06-23T12:06:55.000Z,101320
2018-06-23T12:08:55.000Z,101323
2018-06-23T12:10:55.000Z,101320
2018-06-23T12:12:55.000Z,101321
2018-06-23T12:14:55.000Z,101322
2018-06-23T12:15:55.000Z,101321
2018-06-23T12:17:55.000Z,101320
2018-06-23T12:19:55.000Z,101318
2018-06-23T12:20:55.000Z,101317
2018-06-23T12:22:55.000Z,101319
2018-06-23T12:24:55.000Z,101313
2018-06-23T12:26:55.000Z,101313
2018-06-23T12:28:55.000Z,101311
2018-06-23T12:30:40.000Z,101309
2018-06-23T12:31:55.000Z,101310
2018-06-23T12:33:40.000Z,101304
2018-06-23T12:34:55.000Z,101308
2018-06-23T12:36:40.000Z,101310
2018-06-23T12:37:55.000Z,101308
2018-06-23T12:39:55.000Z,101309
2018-06-23T12:41:55.000Z,101316
2018-06-23T12:43:55.000Z,101309
2018-06-23T12:45:55.000Z,101311
2018-06-23T12:46:55.000Z,101302
2018-06-23T12:47:55.000Z,101304
2018-06-23T12:49:55.000Z,101302
2018-06-23T12:51:55.000Z,101297
2018-06-23T12:52:55.000Z,101289
2018-06-23T12:54:55.000Z,101289
2018-06-23T12:56:55.000Z,101287
2018-06-23T12:57:55.000Z,101284
2018-06-23T12:59:56.000Z,101289
2018-06-23T13:00:56.000Z,101287
2018-06-23T13:02:56.000Z,101279
2018-06-23T13:03:56.000Z,101281
2018-06-23T13:04:56.000Z,101277
2018-06-23T13:06:56.000Z,101280
2018-06-23T13:08:56.000Z,101275
2018-06-23T13:10:56.000Z,101276
2018-06-23T13:12:56.000Z,101266
2018-06-23T13:14:56.000Z,101281
2018-06-23T13:16:56.000Z,101277
2018-06-23T13:17:56.000Z,101275
2018-06-23T13:19:40.000Z,101275
2018-06-23T13:20:56.000Z,101274
2018-06-23T13:22:40.000Z,101263
2018-06-23T13:23:56.000Z,101270
2018-06-23T13:24:56.000Z,101265
2018-06-23T13:26:56.000Z,101266
2018-06-23T13:27:56.000Z,101272
2018-06-23T13:29:56.000Z,101265
2018-06-23T13:31:56.000Z,101266
2018-06-23T13:33:56.000Z,101268
2018-06-23T13:35:56.000Z,101256
2018-06-23T13:37:56.000Z,101266
2018-06-23T13:39:56.000Z,101264
2018-06-23T13:41:56.000Z,101268
2018-06-23T13:42:56.000Z,101266
2018-06-23T13:44:40.000Z,101252
2018-06-23T13:45:56.000Z,101254
2018-06-23T13:47:56.000Z,101248
2018-06-23T13:49:56.000Z,101258
2018-06-23T13:51:56.000Z,101251
2018-06-23T13:53:56.000Z,101250
2018-06-23T13:55:56.000Z,101245
2018-06-23T13:57:56.000Z,101247
2018-06-23T13:58:56.000Z,101237
2018-06-23T13:59:56.000Z,101243
2018-06-23T14:01:40.000Z,101245
2018-06-23T14:02:55.000Z,101249
2018-06-23T14:04:55.000Z,101250
2018-06-23T14:05:55.000Z,101241
2018-06-23T14:07:55.000Z,101244
2018-06-23T14:08:55.000Z,101257
2018-06-23T14:10:55.000Z,101245
2018-06-23T14:12:55.000Z,101239
2018-06-23T14:14:55.000Z,101238
2018-06-23T14:15:55.000Z,101248
2018-06-23T14:17:55.000Z,101253
2018-06-23T14:19:55.000Z,101250
2018-06-23T14:20:55.000Z,101246
2018-06-23T14:22:55.000Z,101247
2018-06-23T14:23:55.000Z,101249
2018-06-23T14:24:55.000Z,101245
2018-06-23T14:26:55.000Z,101247
2018-06-23T14:27:55.000Z,101250
2018-06-23T14:29:40.000Z,101252
2018-06-23T14:30:55.000Z,101251
2018-06-23T14:32:55.000Z,101241
2018-06-23T14:34:55.000Z,101244
2018-06-23T14:35:55.000Z,101246
2018-06-23T14:36:55.000Z,101247
2018-06-23T14:38:55.000Z,101233
2018-06-23T14:40:55.000Z,101234
2018-06-23T14:41:55.000Z,101234
2018-06-23T14:43:55.000Z,101227
2018-06-23T14:45:55.000Z,101222
2018-06-23T14:47:55.000Z,101225
2018-06-23T14:48:55.000Z,101214
2018-06-23T14:50:55.000Z,101212
2018-06-23T14:52:55.000Z,101214
2018-06-23T14:54:55.000Z,101211
2018-06-23T14:55:55.000Z,101215
2018-06-23T14:57:55.000Z,101213
2018-06-23T14:58:55.000Z,101216
2018-06-23T15:00:55.000Z,101222
2018-06-23T15:01:55.000Z,101216
2018-06-23T15:03:55.000Z,101214
2018-06-23T15:05:56.000Z,101206
2018-06-23T15:07:41.000Z,101208
2018-06-23T15:08:56.000Z,101209
2018-06-23T15:10:41.000Z,101203
2018-06-23T15:11:56.000Z,101207
2018-06-23T15:13:56.000Z,101201
2018-06-23T15:15:56.000Z,101194
2018-06-23T15:17:56.000Z,101193
2018-06-23T15:18:56.000Z,101194
2018-06-23T15:19:56.000Z,101186
2018-06-23T15:21:56.000Z,101189
2018-06-23T15:23:41.000Z,101191
2018-06-23T15:24:41.000Z,101193
2018-06-23T15:25:56.000Z,101189
2018-06-23T15:26:56.000Z,101196
2018-06-23T15:27:56.000Z,101191
2018-06-23T15:29:56.000Z,101191
2018-06-23T15:31:56.000Z,101193
2018-06-23T15:33:56.000Z,101188
2018-06-23T15:34:56.000Z,101187
2018-06-23T15:36:56.000Z,101180
2018-06-23T15:37:56.000Z,101177
2018-06-23T15:39:56.000Z,101190
2018-06-23T15:41:41.000Z,101184
2018-06-23T15:42:56.000Z,101189
2018-06-23T15:44:56.000Z,101185
2018-06-23T15:46:56.000Z,101186
2018-06-23T15:47:56.000Z,101178
2018-06-23T15:48:56.000Z,101181
2018-06-23T15:50:56.000Z,101176
2018-06-23T15:51:56.000Z,101179
2018-06-23T15:53:41.000Z,101181
2018-06-23T15:54:56.000Z,101176
2018-06-23T15:56:56.000Z,101175
2018-06-23T15:57:56.000Z,101171
2018-06-23T15:59:41.000Z,101172
2018-06-23T16:00:56.000Z,101174
2018-06-23T16:02:41.000Z,101165
2018-06-23T16:03:56.000Z,101173
2018-06-23T16:05:56.000Z,101168
2018-06-23T16:07:56.000Z,101159
2018-06-23T16:08:56.000Z,101169
2018-06-23T16:10:56.000Z,101157
2018-06-23T16:11:56.000Z,101162
2018-06-23T16:13:56.000Z,101162
2018-06-23T16:14:56.000Z,101162
2018-06-23T16:16:41.000Z,101152
2018-06-23T16:17:56.000Z,101156
2018-06-23T16:18:56.000Z,101166
2018-06-23T16:20:41.000Z,101156
2018-06-23T16:21:56.000Z,101155
2018-06-23T16:23:56.000Z,101158
2018-06-23T16:25:41.000Z,101154
2018-06-23T16:26:56.000Z,101154
2018-06-23T16:28:56.000Z,101160
2018-06-23T16:30:56.000Z,101157
2018-06-23T16:32:56.000Z,101158
2018-06-23T16:34:56.000Z,101160
2018-06-23T16:35:56.000Z,101157
2018-06-23T16:37:56.000Z,101161
2018-06-23T16:39:56.000Z,101160
2018-06-23T16:40:56.000Z,101164
2018-06-23T16:42:56.000Z,101158
2018-06-23T16:44:41.000Z,101158
2018-06-23T16:45:56.000Z,101151
2018-06-23T16:47:41.000Z,101159
2018-06-23T16:48:56.000Z,101153
2018-06-23T16:49:56.000Z,101154
2018-06-23T16:51:56.000Z,101147
2018-06-23T16:53:56.000Z,101148
2018-06-23T16:54:56.000Z,101149
2018-06-23T16:56:41.000Z,101151
2018-06-23T16:57:56.000Z,101143
2018-06-23T16:59:56.000Z,101145
2018-06-23T17:01:56.000Z,101143
2018-06-23T17:03:41.000Z,101142
2018-06-23T17:04:56.000Z,101142
2018-06-23T17:06:56.000Z,101147
2018-06-23T17:07:56.000Z,101144
2018-06-23T17:09:56.000Z,101140
2018-06-23T17:11:56.000Z,101142
2018-06-23T17:13:56.000Z,101141
2018-06-23T17:15:56.000Z,101137
2018-06-23T17:16:56.000Z,101137
2018-06-23T17:18:56.000Z,101135
2018-06-23T17:19:56.000Z,101134
2018-06-23T17:21:56.000Z,101133
2018-06-23T17:23:40.000Z,101127
2018-06-23T17:24:56.000Z,101135
2018-06-23T17:26:56.000Z,101121
2018-06-23T17:28:40.000Z,101134
2018-06-23T17:29:56.000Z,101127
2018-06-23T17:30:56.000Z,101127
2018-06-23T17:32:56.000Z,101123
2018-06-23T17:34:40.000Z,101125
2018-06-23T17:35:56.000Z,101122
2018-06-23T17:37:56.000Z,101120
2018-06-23T17:38:56.000Z,101121
2018-06-23T17:39:56.000Z,101118
2018-06-23T17:41:56.000Z,101119
2018-06-23T17:43:56.000Z,101117
2018-06-23T17:45:56.000Z,101117
2018-06-23T17:46:56.000Z,101119
2018-06-23T17:48:56.000Z,101117
2018-06-23T17:50:56.000Z,101121
2018-06-23T17:51:56.000Z,101119
2018-06-23T17:53:56.000Z,101121
2018-06-23T17:55:56.000Z,101122
2018-06-23T17:57:40.000Z,101119
2018-06-23T17:58:56.000Z,101111
2018-06-23T17:59:56.000Z,101114
2018-06-23T18:01:56.000Z,101116
2018-06-23T18:03:56.000Z,101111
2018-06-23T18:05:56.000Z,101115
2018-06-23T18:07:56.000Z,101102
2018-06-23T18:08:56.000Z,101110
2018-06-23T18:10:56.000Z,101109
2018-06-23T18:12:56.000Z,101112
2018-06-23T18:14:56.000Z,101112
2018-06-23T18:16:56.000Z,101114
2018-06-23T18:18:56.000Z,101113
2018-06-23T18:20:41.000Z,101110
2018-06-23T18:21:56.000Z,101114
2018-06-23T18:23:56.000Z,101114
2018-06-23T18:24:56.000Z,101116
2018-06-23T18:26:56.000Z,101113
2018-06-23T18:27:56.000Z,101109
2018-06-23T18:28:56.000Z,101115
2018-06-23T18:30:56.000Z,101108
2018-06-23T18:32:26.000Z,101110
2018-06-23T18:33:56.000Z,101114
2018-06-23T18:35:56.000Z,101113
2018-06-23T18:37:56.000Z,101112
2018-06-23T18:38:56.000Z,101113
2018-06-23T18:40:41.000Z,101111
2018-06-23T18:41:56.000Z,101111
2018-06-23T18:43:56.000Z,101109
2018-06-23T18:45:56.000Z,101110
2018-06-23T18:46:56.000Z,101111
2018-06-23T18:48:56.000Z,101111
2018-06-23T18:50:56.000Z,101108
2018-06-23T18:52:56.000Z,101118
2018-06-23T18:53:56.000Z,101115
2018-06-23T18:55:56.000Z,101117
2018-06-23T18:57:56.000Z,101114
2018-06-23T18:58:56.000Z,101118
2018-06-23T19:00:56.000Z,101113
2018-06-23T19:02:41.000Z,101111
2018-06-23T19:03:56.000Z,101118
2018-06-23T19:05:56.000Z,101117
2018-06-23T19:07:56.000Z,101117
2018-06-23T19:08:56.000Z,101119
2018-06-23T19:09:56.000Z,101120
2018-06-23T19:11:56.000Z,101116
2018-06-23T19:12:56.000Z,101117
2018-06-23T19:14:56.000Z,101116
2018-06-23T19:16:26.000Z,101112
2018-06-23T19:17:56.000Z,101114
2018-06-23T19:19:56.000Z,101114
2018-06-23T19:21:56.000Z,101120
2018-06-23T19:23:56.000Z,101117
2018-06-23T19:25:56.000Z,101117
2018-06-23T19:26:56.000Z,101120
2018-06-23T19:28:56.000Z,101118
2018-06-23T19:30:56.000Z,101114
2018-06-23T19:32:56.000Z,101121
2018-06-23T19:34:56.000Z,101118
2018-06-23T19:35:56.000Z,101119
2018-06-23T19:36:56.000Z,101121
2018-06-23T19:38:56.000Z,101122
2018-06-23T19:40:56.000Z,101119
2018-06-23T19:42:56.000Z,101128
2018-06-23T19:43:56.000Z,101125
2018-06-23T19:45:56.000Z,101133
2018-06-23T19:46:56.000Z,101125
2018-06-23T19:47:56.000Z,101128
2018-06-23T19:49:56.000Z,101127
2018-06-23T19:50:56.000Z,101130
2018-06-23T19:51:56.000Z,101131
2018-06-23T19:53:56.000Z,101130
2018-06-23T19:54:56.000Z,101132
2018-06-23T19:56:56.000Z,101126
2018-06-23T19:58:56.000Z,101128
2018-06-23T20:00:41.000Z,101133